Terminal Aerodrome Forecast
Issued by NWS Shreveport, LA

Home | Current Version | Previous Version | Text Only | Print | Product List | Glossary On
Versions: 1 2 3 4 5 6 7 8 9 10 11 12 13 14 15 16 17 18
000
FTUS44 KSHV 300906 AAA
TAFMLU
TAF AMD
KMLU 300906Z 3009/3106 24012KT P6SM BKN100
     FM301100 VRB04KT P6SM VCTS BKN030CB
     FM301600 VRB04KT P6SM BKN040
     FM302100 32005KT P6SM SCT050=

USA.gov is the U.S. government's official web portal to all federal, state and local government web resources and services.